Time;durP1;ratioP1;P1;durP2;ratioP2;P2;SDS_P1;SDS_P2;PMS_P1;PMS_P2;Temp;Humidity;BMP_temperature;BMP_pressure;BME280_temperature;BME280_humidity;BME280_pressure;Samples;Min_cycle;Max_cycle;Signal;HPM_P1;HPM_P2
2022/07/01 00:01:26;;;;;;;10.73;9.70;;;21.30;99.90;;;21.50;73.86;100632.44;5063601;28;20439;-74
2022/07/01 00:03:55;;;;;;;13.10;11.30;;;21.30;99.90;;;21.45;74.11;100634.38;5060793;28;20413;-74
2022/07/01 00:06:24;;;;;;;13.47;12.20;;;21.30;99.90;;;21.49;73.80;100638.25;5063526;28;20428;-75
2022/07/01 00:08:53;;;;;;;11.50;10.30;;;21.30;99.90;;;21.58;74.00;100634.63;5066847;28;20492;-74
2022/07/01 00:11:22;;;;;;;14.23;12.80;;;21.30;99.90;;;21.67;73.45;100624.66;5054565;28;20505;-75
2022/07/01 00:13:51;;;;;;;13.87;12.37;;;21.40;99.90;;;21.64;73.96;100627.97;5056356;28;20482;-75
2022/07/01 00:16:20;;;;;;;12.20;11.00;;;21.40;99.90;;;21.58;73.96;100633.78;5052970;28;20434;-74
2022/07/01 00:18:50;;;;;;;14.23;12.10;;;21.40;99.90;;;21.60;74.13;100620.56;5052642;28;20406;-75
2022/07/01 00:21:19;;;;;;;13.30;11.90;;;21.40;99.90;;;21.52;74.51;100612.88;5051322;28;20413;-74
2022/07/01 00:23:48;;;;;;;14.70;12.20;;;21.30;99.90;;;21.47;74.76;100615.66;5049462;28;20430;-75
2022/07/01 00:26:17;;;;;;;13.90;12.20;;;21.30;99.90;;;21.46;74.90;100614.84;5056655;28;21001;-74
2022/07/01 00:28:46;;;;;;;12.57;11.37;;;21.30;99.90;;;21.46;75.13;100616.75;5060503;28;20464;-74
2022/07/01 00:31:15;;;;;;;14.43;12.47;;;21.30;99.90;;;21.47;74.81;100610.97;5061036;28;20474;-74
2022/07/01 00:33:44;;;;;;;14.27;12.77;;;21.30;99.90;;;21.42;75.45;100610.16;5044726;28;20410;-74
2022/07/01 00:36:14;;;;;;;13.23;11.90;;;21.20;99.90;;;21.42;75.60;100602.75;5047907;28;20405;-74
2022/07/01 00:38:43;;;;;;;13.07;11.73;;;21.20;99.90;;;21.45;75.29;100612.34;5051283;28;20444;-73
2022/07/01 00:41:12;;;;;;;13.60;11.53;;;21.20;99.90;;;21.36;76.09;100609.34;5063587;28;20439;-74
2022/07/01 00:43:41;;;;;;;14.77;13.27;;;21.20;99.90;;;21.26;76.32;100603.88;5053012;28;20459;-73
2022/07/01 00:46:24;;;;;;;15.00;12.57;;;21.10;99.90;;;21.27;76.65;100594.53;5066052;28;20438;-74
2022/07/01 00:48:56;;;;;;;13.83;12.30;;;21.10;99.90;;;21.30;76.76;100595.91;5054192;28;20431;-74
2022/07/01 00:51:27;;;;;;;13.67;12.27;;;21.10;99.90;;;21.32;76.56;100591.75;5053677;28;20870;-74
2022/07/01 00:53:58;;;;;;;15.07;13.57;;;21.10;99.90;;;21.33;76.54;100587.09;5053140;28;20547;-75
2022/07/01 00:56:27;;;;;;;15.47;13.40;;;21.10;99.90;;;21.24;76.92;100595.94;5059737;28;20962;-74
2022/07/01 00:58:57;;;;;;;15.70;14.10;;;21.10;99.90;;;21.25;77.08;100594.81;5048825;28;20454;-74
2022/07/01 01:01:26;;;;;;;14.53;12.93;;;21.10;99.90;;;21.24;77.21;100593.19;5054289;28;20469;-73
2022/07/01 01:03:55;;;;;;;15.30;13.70;;;21.10;99.90;;;21.32;77.12;100596.44;5056367;28;20504;-73
2022/07/01 01:06:26;;;;;;;16.60;14.23;;;21.10;99.90;;;21.25;77.32;100588.50;5059491;28;20521;-74
2022/07/01 01:08:55;;;;;;;16.90;15.20;;;21.10;99.90;;;21.28;77.14;100600.88;5049612;28;20434;-74
2022/07/01 01:11:24;;;;;;;18.17;15.23;;;21.10;99.90;;;21.18;77.89;100597.03;5065543;28;20807;-74
2022/07/01 01:13:53;;;;;;;17.03;15.27;;;21.00;99.90;;;21.21;78.15;100596.47;5046091;28;20406;-73
2022/07/01 01:16:25;;;;;;;16.77;14.73;;;21.00;99.90;;;21.21;77.70;100588.22;5063590;28;20867;-74
2022/07/01 01:18:55;;;;;;;19.07;15.20;;;21.00;99.90;;;21.17;78.23;100589.88;5047217;28;20446;-74
2022/07/01 01:21:26;;;;;;;18.00;16.30;;;21.00;99.90;;;21.10;78.09;100594.84;5056792;28;20432;-75
2022/07/01 01:23:55;;;;;;;15.57;13.57;;;21.00;99.90;;;21.19;78.03;100600.63;5049729;28;20412;-75
2022/07/01 01:26:25;;;;;;;17.20;15.23;;;21.00;99.90;;;21.11;78.49;100596.47;5058159;28;20461;-74
2022/07/01 01:28:54;;;;;;;17.80;15.90;;;21.00;99.90;;;21.19;78.14;100595.94;5047969;28;20439;-75
2022/07/01 01:31:30;;;;;;;17.47;14.57;;;21.00;99.90;;;21.29;78.13;100586.84;5050655;28;20474;-74
2022/07/01 01:33:59;;;;;;;20.27;17.00;;;21.00;99.90;;;21.20;78.25;100594.81;5057272;28;20413;-75
2022/07/01 01:36:30;;;;;;;19.20;15.83;;;21.00;99.90;;;21.20;78.45;100592.06;5053450;28;20443;-74
2022/07/01 01:39:02;;;;;;;20.43;16.60;;;21.00;99.90;;;21.27;78.45;100593.69;5059335;28;20417;-74
2022/07/01 01:41:31;;;;;;;18.20;16.33;;;21.10;99.90;;;21.20;78.60;100594.81;5063189;28;20433;-74
2022/07/01 01:44:00;;;;;;;20.23;17.80;;;21.00;99.90;;;21.28;78.63;100595.34;5057722;28;20442;-74
2022/07/01 01:46:30;;;;;;;21.30;15.83;;;21.00;99.90;;;21.24;78.70;100595.09;5064992;28;20414;-75
2022/07/01 01:48:59;;;;;;;18.30;15.93;;;21.00;99.90;;;21.14;79.20;100584.13;5067064;28;20487;-75
2022/07/01 01:51:29;;;;;;;21.73;17.47;;;21.00;99.90;;;21.23;78.84;100583.25;5053679;28;20566;-75
2022/07/01 01:53:59;;;;;;;20.03;17.07;;;21.00;99.90;;;21.20;78.93;100578.31;5051671;28;21106;-74
2022/07/01 01:56:29;;;;;;;18.00;15.57;;;21.00;99.90;;;21.19;79.15;100576.69;5039021;28;20473;-74
2022/07/01 01:58:59;;;;;;;18.50;15.80;;;21.00;99.90;;;21.08;79.71;100569.53;5049579;28;20434;-74
2022/07/01 02:01:28;;;;;;;19.93;16.97;;;21.00;99.90;;;21.11;79.78;100568.13;5025823;28;20867;-75
2022/07/01 02:03:58;;;;;;;18.90;16.10;;;21.00;99.90;;;21.06;80.03;100566.22;5056965;28;20438;-74
2022/07/01 02:06:29;;;;;;;21.63;16.27;;;20.90;99.90;;;21.13;79.82;100553.03;5062804;28;20420;-75
2022/07/01 02:08:58;;;;;;;22.20;18.17;;;20.90;99.90;;;21.03;80.21;100550.28;5056036;28;20450;-74
2022/07/01 02:11:27;;;;;;;18.73;16.73;;;20.90;99.90;;;21.03;80.44;100547.53;5049904;28;20823;-74
2022/07/01 02:13:55;;;;;;;19.13;17.10;;;20.90;99.90;;;21.06;80.17;100548.88;5065524;28;20496;-74
2022/07/01 02:16:24;;;;;;;22.10;17.47;;;20.90;99.90;;;21.00;80.57;100550.84;5055353;28;20534;-75
2022/07/01 02:18:54;;;;;;;18.53;16.30;;;20.80;99.90;;;20.87;80.97;100551.41;5058335;28;20442;-74
2022/07/01 02:21:22;;;;;;;19.43;17.43;;;20.80;99.90;;;20.94;80.90;100557.44;5052469;28;20491;-74
2022/07/01 02:23:53;;;;;;;22.03;18.67;;;20.80;99.90;;;20.90;81.33;100561.88;5047865;28;20531;-74
2022/07/01 02:26:22;;;;;;;20.20;18.03;;;20.80;99.90;;;20.88;81.37;100561.31;5057614;28;20409;-74
2022/07/01 02:28:51;;;;;;;19.23;17.10;;;20.70;99.90;;;20.84;81.81;100573.97;5049738;28;20443;-74
2022/07/01 02:31:20;;;;;;;19.30;17.30;;;20.70;99.90;;;20.77;81.98;100562.41;5060241;28;20533;-73
2022/07/01 02:33:49;;;;;;;21.73;19.23;;;20.70;99.90;;;20.86;81.75;100569.03;5057044;28;20444;-74
2022/07/01 02:36:18;;;;;;;21.07;18.40;;;20.70;99.90;;;20.89;81.54;100565.72;5058670;28;20571;-74
2022/07/01 02:38:47;;;;;;;18.43;16.33;;;20.70;99.90;;;20.92;81.83;100569.81;5069920;28;20417;-75
2022/07/01 02:41:18;;;;;;;19.90;17.80;;;20.70;99.90;;;20.83;82.24;100575.06;5054135;28;20421;-74
2022/07/01 02:43:46;;;;;;;23.33;17.90;;;20.70;99.90;;;20.85;82.06;100578.38;5053226;28;20429;-75
2022/07/01 02:46:15;;;;;;;20.97;16.60;;;20.70;99.90;;;20.89;81.73;100576.72;5061759;28;20444;-74
2022/07/01 02:48:44;;;;;;;23.57;19.23;;;20.70;99.90;;;20.89;81.75;100575.88;5060409;28;20463;-74
2022/07/01 02:51:13;;;;;;;21.20;18.70;;;20.70;99.90;;;20.87;82.35;100578.91;5049829;28;20524;-75
2022/07/01 02:53:42;;;;;;;20.20;18.00;;;20.70;99.90;;;20.82;82.45;100587.16;5056260;28;20951;-73
2022/07/01 02:56:11;;;;;;;20.60;18.50;;;20.70;99.90;;;20.86;82.37;100584.72;5066961;28;20875;-76
2022/07/01 02:58:41;;;;;;;28.60;21.30;;;20.70;99.90;;;20.88;82.70;100580.56;5069688;28;20409;-74
2022/07/01 03:01:10;;;;;;;23.90;18.73;;;20.70;99.90;;;20.96;82.49;100585.50;5055953;28;20440;-74
2022/07/01 03:03:39;;;;;;;21.60;18.07;;;20.70;99.90;;;21.03;81.84;100599.78;5067391;28;20440;-74
2022/07/01 03:06:07;;;;;;;20.80;18.10;;;20.80;99.90;;;21.03;82.12;100587.97;5051027;28;20448;-73
2022/07/01 03:08:36;;;;;;;20.03;17.90;;;20.80;99.90;;;21.08;81.78;100591.53;5050154;28;20534;-74
2022/07/01 03:11:05;;;;;;;22.20;19.07;;;20.80;99.90;;;21.10;81.66;100594.84;5067659;28;20448;-74
2022/07/01 03:13:34;;;;;;;20.83;18.03;;;20.80;99.90;;;21.14;81.65;100593.19;5057259;28;21035;-75
2022/07/01 03:16:05;;;;;;;22.47;19.13;;;20.90;99.90;;;21.25;81.66;100592.06;5063812;28;20797;-74
2022/07/01 03:18:33;;;;;;;27.57;19.70;;;20.90;99.90;;;21.32;81.08;100590.94;5058366;28;20474;-74
2022/07/01 03:21:02;;;;;;;22.07;19.67;;;21.00;99.90;;;21.41;80.74;100589.25;5056783;28;20421;-74
2022/07/01 03:23:31;;;;;;;22.83;19.57;;;21.10;99.90;;;21.52;80.47;100594.44;5061833;28;20867;-73
2022/07/01 03:26:00;;;;;;;26.60;21.73;;;21.20;99.90;;;21.59;80.23;100597.69;5062033;28;20451;-75
2022/07/01 03:28:31;;;;;;;23.60;19.37;;;21.30;99.90;;;21.67;79.72;100602.63;5049273;28;20863;-74
2022/07/01 03:31:00;;;;;;;22.67;20.13;;;21.30;99.90;;;21.77;79.28;100588.00;5046141;28;21101;-75
2022/07/01 03:33:30;;;;;;;21.10;18.20;;;21.40;99.90;;;21.84;78.94;100594.00;5058732;28;20515;-75
2022/07/01 03:36:01;;;;;;;21.67;19.20;;;21.50;99.90;;;21.87;78.97;100587.13;5051893;28;20500;-75
2022/07/01 03:38:29;;;;;;;25.30;20.17;;;21.50;99.90;;;22.19;77.48;100597.69;5068341;28;20420;-74
2022/07/01 03:40:58;;;;;;;21.87;19.40;;;21.60;99.90;;;22.40;76.74;100590.91;5053887;28;20819;-75
2022/07/01 03:43:27;;;;;;;26.33;21.63;;;21.80;99.90;;;23.01;74.72;100587.63;5050735;28;20475;-74
2022/07/01 03:45:56;;;;;;;22.53;19.40;;;22.10;99.90;;;23.94;70.72;100589.81;5045435;28;20874;-74
2022/07/01 03:48:25;;;;;;;20.87;18.60;;;22.60;99.90;;;24.65;67.69;100584.84;5057393;28;20421;-73
2022/07/01 03:50:56;;;;;;;18.67;16.73;;;23.00;99.90;;;25.53;64.54;100586.50;5048856;28;20442;-73
2022/07/01 03:56:11;;;;;;;18.97;17.13;;;24.00;99.90;;;26.76;59.85;100590.88;5059831;28;20687;-74
2022/07/01 03:58:39;;;;;;;20.13;18.00;;;24.50;99.90;;;27.19;59.12;100588.38;5049754;28;20446;-74
2022/07/01 04:01:08;;;;;;;22.77;18.57;;;24.80;99.90;;;27.49;57.99;100593.09;5057151;28;20417;-74
2022/07/01 04:03:37;;;;;;;20.73;18.30;;;25.30;99.90;;;27.60;57.49;100588.03;5057692;28;20434;-74
2022/07/01 04:06:08;;;;;;;21.50;19.30;;;25.50;99.90;;;27.91;56.60;100594.31;5055471;28;20418;-75
2022/07/01 04:08:37;;;;;;;18.27;16.37;;;25.40;99.90;;;28.20;55.64;100601.25;5032401;28;20542;-74
2022/07/01 04:11:08;;;;;;;19.53;17.53;;;25.60;99.90;;;28.27;54.97;100605.16;5038060;28;20541;-73
2022/07/01 04:13:38;;;;;;;19.67;17.67;;;25.70;99.90;;;28.54;54.21;100595.66;5057152;28;20993;-73
2022/07/01 04:16:07;;;;;;;19.50;17.40;;;25.90;99.90;;;28.53;54.22;100597.63;5048275;28;20430;-74
2022/07/01 04:18:36;;;;;;;20.63;17.33;;;26.00;99.90;;;28.61;53.96;100600.75;5051163;28;20471;-74
2022/07/01 04:23:52;;;;;;;18.97;17.07;;;26.30;97.60;;;28.94;53.54;100597.09;5057974;28;21246;-73
2022/07/01 04:26:21;;;;;;;19.50;17.43;;;26.40;98.00;;;29.07;52.73;100592.44;5049400;28;20522;-73
2022/07/01 04:29:08;;;;;;;18.27;16.47;;;26.30;98.60;;;29.47;51.82;100601.34;5051453;28;20886;-73
2022/07/01 04:31:37;;;;;;;23.30;17.90;;;26.60;95.10;;;29.57;51.68;100600.13;5051730;28;20466;-73
2022/07/01 04:34:08;;;;;;;19.40;17.40;;;27.10;92.70;;;29.03;52.58;100601.81;5048096;28;20889;-73
2022/07/01 04:36:37;;;;;;;19.17;17.37;;;27.00;90.70;;;29.57;51.47;100600.13;5046983;28;20459;-74
2022/07/01 04:39:08;;;;;;;17.17;15.43;;;27.00;92.00;;;30.01;50.57;100582.00;5057637;28;20447;-74
2022/07/01 04:44:23;;;;;;;19.93;17.93;;;27.40;83.80;;;30.56;49.33;100592.88;5054852;28;20447;-74
2022/07/01 04:46:52;;;;;;;18.80;16.80;;;27.60;79.80;;;29.82;50.59;100599.19;5043531;28;20471;-74
2022/07/01 04:49:21;;;;;;;25.10;20.20;;;27.50;76.70;;;29.68;51.31;100607.75;5041837;28;20438;-74
2022/07/01 04:51:50;;;;;;;20.17;18.23;;;27.50;78.80;;;29.77;51.11;100605.75;5050134;28;20494;-74
2022/07/01 04:54:21;;;;;;;18.00;16.27;;;27.50;78.70;;;29.80;51.05;100605.09;5050283;28;20449;-75
2022/07/01 04:56:51;;;;;;;18.37;16.50;;;27.40;82.90;;;30.57;49.61;100600.09;5047312;28;20463;-73
2022/07/01 04:59:20;;;;;;;18.87;16.93;;;27.50;81.10;;;31.05;48.33;100610.63;5063285;28;20435;-74
2022/07/01 05:01:49;;;;;;;21.67;16.87;;;27.70;74.70;;;30.92;48.46;100606.97;5059801;28;20614;-74
2022/07/01 05:04:19;;;;;;;19.67;17.57;;;28.00;67.90;;;30.56;49.37;100599.28;5055323;28;20797;-75
2022/07/01 05:06:48;;;;;;;18.50;16.60;;;27.90;67.40;;;31.24;47.85;100608.09;5044826;28;20451;-74
2022/07/01 05:09:18;;;;;;;21.50;17.27;;;27.90;66.90;;;31.65;46.87;100600.69;5056051;28;20442;-76
2022/07/01 05:11:54;;;;;;;20.10;18.00;;;28.50;58.20;;;31.33;47.30;100600.41;5055514;28;20582;-74
2022/07/01 05:14:23;;;;;;;17.47;15.67;;;28.70;51.90;;;31.44;47.31;100607.16;5053319;28;20435;-73
2022/07/01 05:16:52;;;;;;;19.57;17.53;;;28.70;47.30;;;31.47;47.20;100612.06;5052703;28;20440;-74
2022/07/01 05:22:07;;;;;;;18.23;16.30;;;28.50;48.10;;;30.20;50.16;100602.69;5051543;28;20466;-73
2022/07/01 05:24:37;;;;;;;19.47;17.20;;;28.20;54.90;;;31.38;47.91;100608.56;5065309;28;20920;-74
2022/07/01 05:27:07;;;;;;;18.20;16.50;;;28.40;55.70;;;31.43;47.05;100610.31;5052748;28;20497;-74
2022/07/01 05:29:36;;;;;;;20.37;17.70;;;28.70;48.00;;;31.28;47.43;100625.78;5055487;28;20447;-75
2022/07/01 05:32:06;;;;;;;18.17;15.87;;;28.90;43.70;;;31.83;46.51;100641.22;5046234;28;20828;-74
2022/07/01 05:34:37;;;;;;;19.53;17.50;;;29.00;43.70;;;31.35;47.57;100658.78;5062068;28;20959;-73
2022/07/01 05:37:06;;;;;;;18.93;16.60;;;29.50;35.70;;;31.14;48.12;100667.22;5053304;28;20882;-74
2022/07/01 05:39:35;;;;;;;18.40;16.40;;;29.60;33.30;;;30.95;48.48;100662.13;5050210;28;20443;-74
2022/07/01 05:42:13;;;;;;;18.10;16.07;;;29.00;37.80;;;29.78;51.19;100663.16;5068392;28;20458;-74
2022/07/01 05:44:42;;;;;;;16.83;15.13;;;28.50;47.70;;;28.89;53.26;100658.53;5055733;28;20439;-74
2022/07/01 05:47:11;;;;;;;17.80;15.93;;;28.10;57.00;;;28.28;55.65;100675.53;5061343;28;20487;-75
2022/07/01 05:49:39;;;;;;;18.13;16.43;;;27.60;76.20;;;27.93;56.31;100681.00;5049731;28;20433;-73
2022/07/01 05:52:09;;;;;;;22.60;17.33;;;27.30;82.30;;;27.49;56.88;100676.47;5055383;28;20462;-74
2022/07/01 05:54:38;;;;;;;16.53;14.93;;;26.90;91.00;;;27.14;58.41;100680.97;5054580;28;20541;-73
2022/07/01 05:57:07;;;;;;;17.73;15.47;;;26.50;95.60;;;27.17;57.76;100685.06;5049513;28;20447;-75
2022/07/01 05:59:38;;;;;;;19.17;17.27;;;26.50;96.10;;;27.02;58.65;100694.63;5055947;28;20957;-74
2022/07/01 06:02:08;;;;;;;21.00;16.77;;;26.60;96.40;;;27.15;58.52;100690.13;5050973;28;20965;-76
2022/07/01 06:04:37;;;;;;;20.83;18.63;;;26.70;96.80;;;27.07;58.63;100688.94;5055964;28;20439;-74
2022/07/01 06:07:06;;;;;;;19.40;17.47;;;26.70;96.40;;;26.78;59.49;100694.91;5044474;28;20462;-74
2022/07/01 06:09:35;;;;;;;21.30;17.57;;;26.40;98.60;;;26.77;59.47;100698.81;5046987;28;20466;-75
2022/07/01 06:12:05;;;;;;;19.50;17.50;;;26.20;99.90;;;26.67;60.33;100698.25;5056407;28;20707;-75
2022/07/01 06:14:34;;;;;;;23.10;16.67;;;26.20;99.90;;;26.55;60.51;100700.75;5061886;28;20565;-75
2022/07/01 06:17:05;;;;;;;20.40;18.27;;;26.20;99.90;;;26.49;60.87;100696.44;5050738;28;20434;-74
2022/07/01 06:19:34;;;;;;;18.53;16.40;;;26.10;99.90;;;26.48;61.20;100700.38;5055385;28;20496;-75
2022/07/01 06:22:03;;;;;;;19.53;17.50;;;26.00;99.90;;;26.59;60.50;100701.75;5060419;28;20448;-74
2022/07/01 06:24:31;;;;;;;21.77;18.60;;;26.10;99.90;;;26.49;60.54;100702.81;5063002;28;20441;-74
2022/07/01 06:27:00;;;;;;;19.77;16.63;;;26.00;99.90;;;26.60;60.64;100704.25;5054227;28;20547;-75
2022/07/01 06:29:30;;;;;;;21.87;19.67;;;25.90;99.90;;;26.43;60.50;100701.31;5046371;28;20443;-74
2022/07/01 06:31:59;;;;;;;20.53;18.37;;;26.00;99.90;;;26.22;61.58;100703.72;5068336;28;20450;-75
2022/07/01 06:34:37;;;;;;;21.00;18.77;;;25.80;99.90;;;26.06;62.06;100710.69;5044931;28;20528;-76
2022/07/01 06:37:06;;;;;;;20.63;18.53;;;25.70;99.90;;;25.83;63.16;100711.72;5061164;28;20476;-74
2022/07/01 06:39:35;;;;;;;22.90;19.10;;;25.50;99.90;;;25.39;64.45;100721.41;5059042;28;20962;-74
2022/07/01 06:42:05;;;;;;;22.43;19.97;;;25.20;99.90;;;25.47;64.44;100720.69;5050088;28;20526;-74
2022/07/01 06:44:34;;;;;;;22.63;20.23;;;25.10;99.90;;;25.59;64.31;100713.88;5074561;22;20493;-72
2022/07/01 06:47:03;;;;;;;20.23;18.10;;;25.10;99.90;;;25.59;63.63;100714.69;5043350;28;20484;-73
2022/07/01 06:49:32;;;;;;;21.97;18.67;;;25.30;99.90;;;25.68;63.88;100731.44;5046987;28;20498;-72
2022/07/01 06:52:02;;;;;;;26.50;21.40;;;25.20;99.90;;;26.07;62.46;100717.88;5048659;28;20529;-73
2022/07/01 06:54:31;;;;;;;20.33;17.97;;;25.50;99.90;;;26.00;62.11;100719.44;5055210;28;20464;-72
2022/07/01 06:57:00;;;;;;;21.13;18.27;;;25.50;99.90;;;26.15;61.20;100708.00;5042446;28;20449;-72
2022/07/01 06:59:29;;;;;;;20.60;18.40;;;25.50;99.90;;;26.70;60.33;100697.63;5059148;28;20438;-73
2022/07/01 07:01:58;;;;;;;21.17;19.07;;;25.90;99.90;;;26.96;58.56;100707.00;5048690;28;20459;-73
2022/07/01 07:04:26;;;;;;;23.27;19.70;;;26.20;98.30;;;27.06;57.94;100706.72;5051260;28;20436;-72
2022/07/01 07:07:17;;;;;;;20.63;18.60;;;26.30;95.90;;;26.94;58.27;100695.38;5049900;28;20443;-73
2022/07/01 07:09:46;;;;;;;20.90;18.77;;;26.30;95.00;;;27.05;58.42;100690.41;5060322;28;20500;-72
2022/07/01 07:12:14;;;;;;;19.33;16.77;;;26.40;95.00;;;26.99;58.72;100689.72;5059115;28;20459;-73
2022/07/01 07:14:43;;;;;;;20.90;19.10;;;26.30;95.90;;;27.15;57.52;100693.75;5055818;28;20482;-72
2022/07/01 07:17:12;;;;;;;23.33;18.73;;;26.60;93.20;;;27.01;57.57;100687.44;5064498;28;20442;-72
2022/07/01 07:19:41;;;;;;;20.70;18.57;;;26.40;92.30;;;27.62;56.71;100691.38;5053307;28;20423;-73
2022/07/01 07:22:10;;;;;;;18.87;16.87;;;26.80;91.90;;;27.24;55.60;100688.22;5065676;28;20951;-72
2022/07/01 07:24:40;;;;;;;19.10;15.87;;;26.90;74.60;;;26.53;56.61;100686.41;5055709;28;20515;-72
2022/07/01 07:27:10;;;;;;;16.40;14.83;;;26.40;72.50;;;26.75;55.35;100689.16;5047192;28;20405;-73
2022/07/01 07:29:39;;;;;;;16.70;14.33;;;26.40;70.00;;;25.99;57.69;100692.84;5053353;28;20561;-73
2022/07/01 07:32:09;;;;;;;18.20;16.43;;;26.00;76.50;;;26.14;57.88;100689.75;5049606;28;20543;-72
2022/07/01 07:34:38;;;;;;;16.67;15.03;;;25.90;85.20;;;26.34;57.37;100698.44;5044437;28;20536;-73
2022/07/01 07:37:07;;;;;;;19.37;17.40;;;25.90;87.80;;;26.48;57.00;100692.06;5053305;28;20438;-73
2022/07/01 07:39:36;;;;;;;15.77;14.23;;;25.90;85.60;;;27.05;55.22;100694.00;5065661;28;20413;-73
2022/07/01 07:42:07;;;;;;;13.60;12.30;;;26.40;78.70;;;26.76;54.29;100688.03;5054818;28;20460;-72
2022/07/01 07:44:36;;;;;;;14.13;12.73;;;26.40;60.00;;;26.51;55.32;100689.47;5051379;28;20443;-73
2022/07/01 07:47:05;;;;;;;14.00;12.73;;;26.30;63.50;;;26.76;55.34;100685.28;5038781;28;20451;-72
2022/07/01 07:49:34;;;;;;;15.30;13.87;;;26.30;65.40;;;26.89;54.47;100689.13;5059416;28;20450;-73
2022/07/01 07:52:03;;;;;;;14.20;12.80;;;26.50;59.60;;;27.00;54.99;100691.34;5051550;28;20897;-73
2022/07/01 07:54:32;;;;;;;13.63;12.33;;;26.60;63.20;;;27.07;53.74;100686.16;5056415;28;20534;-72
2022/07/01 07:57:01;;;;;;;11.27;10.17;;;26.70;55.60;;;26.99;53.14;100684.16;5056182;28;20462;-72
2022/07/01 07:59:31;;;;;;;13.77;10.87;;;26.60;46.30;;;27.10;52.28;100679.16;5047349;28;20448;-72
2022/07/01 08:02:00;;;;;;;13.37;11.97;;;26.70;43.20;;;27.34;52.71;100678.81;5032184;28;20539;-72
2022/07/01 08:04:29;;;;;;;11.53;10.43;;;26.90;44.70;;;27.35;52.44;100674.91;5051117;28;20435;-72
2022/07/01 08:06:58;;;;;;;13.10;11.80;;;26.90;43.80;;;26.63;54.09;100678.63;5053349;28;20781;-74
2022/07/01 08:09:28;;;;;;;11.97;10.73;;;26.40;47.60;;;26.42;54.96;100673.88;5056330;28;20453;-73
2022/07/01 08:11:56;;;;;;;12.90;11.57;;;26.20;52.90;;;26.76;54.11;100682.50;5052836;28;20517;-73
2022/07/01 08:14:25;;;;;;;12.83;10.73;;;26.30;52.40;;;26.82;53.72;100675.66;5058624;28;20478;-73
2022/07/01 08:16:56;;;;;;;12.03;10.80;;;26.40;48.00;;;27.00;53.05;100685.78;5052518;28;20438;-72
2022/07/01 08:19:25;;;;;;;13.40;11.17;;;26.50;47.10;;;26.94;53.41;100687.06;5047548;28;20534;-73
2022/07/01 08:21:54;;;;;;;13.80;12.40;;;26.50;47.80;;;26.86;53.79;100685.06;5059502;28;20532;-72
2022/07/01 08:24:23;;;;;;;12.73;11.43;;;26.60;48.00;;;26.90;53.80;100686.06;5049036;28;20478;-73
2022/07/01 08:26:52;;;;;;;12.20;11.10;;;26.40;49.90;;;27.07;53.04;100680.59;5036548;28;20542;-74
2022/07/01 08:29:21;;;;;;;12.53;11.33;;;26.60;47.00;;;26.81;54.17;100690.69;5045654;28;20439;-72
2022/07/01 08:31:50;;;;;;;13.53;12.23;;;26.60;46.60;;;27.22;52.86;100687.72;5039860;28;20491;-72
2022/07/01 08:34:23;;;;;;;12.10;11.00;;;26.80;45.60;;;27.42;52.56;100687.16;5041146;28;20678;-72
2022/07/01 08:36:52;;;;;;;13.57;12.17;;;26.90;45.20;;;27.23;53.74;100697.69;5058290;28;20444;-73
2022/07/01 08:39:23;;;;;;;12.77;11.50;;;26.80;46.80;;;27.63;52.67;100701.38;5054925;28;20430;-73
2022/07/01 08:41:52;;;;;;;12.20;11.00;;;27.00;45.50;;;27.59;52.69;100703.94;5069119;28;20717;-72
2022/07/01 08:44:20;;;;;;;12.40;11.20;;;27.10;42.40;;;27.90;51.99;100697.53;5034873;28;20482;-72
2022/07/01 08:46:51;;;;;;;13.80;12.33;;;27.30;41.50;;;27.80;52.55;100709.75;5053260;28;20440;-74
2022/07/01 08:49:24;;;;;;;13.30;11.90;;;27.30;40.00;;;27.98;52.01;100700.31;5054777;28;20438;-73
2022/07/01 08:51:53;;;;;;;12.70;11.50;;;27.40;39.20;;;28.19;51.02;100700.56;5057818;28;20553;-74
2022/07/01 08:54:22;;;;;;;14.50;13.20;;;27.60;36.50;;;28.24;51.15;100707.94;5064308;28;20553;-72
2022/07/01 08:56:50;;;;;;;13.23;12.03;;;27.80;34.50;;;28.36;51.02;100692.28;5060822;28;20930;-72
2022/07/01 08:59:25;;;;;;;12.97;11.80;;;27.80;34.20;;;28.40;50.92;100695.22;5055639;28;20660;-73
2022/07/01 09:01:59;;;;;;;13.13;11.43;;;27.90;32.30;;;27.48;53.02;100698.97;5033868;28;20462;-73
2022/07/01 09:04:31;;;;;;;14.13;12.67;;;27.40;35.20;;;27.57;53.15;100699.88;5067114;28;20496;-74
2022/07/01 09:07:08;;;;;;;14.80;12.70;;;27.40;36.60;;;27.52;52.36;100702.78;5056127;28;21154;-73
2022/07/01 09:09:40;;;;;;;15.20;13.80;;;27.30;35.80;;;27.73;52.70;100703.88;5053264;28;20455;-72
2022/07/01 09:12:10;;;;;;;16.07;14.10;;;27.40;37.70;;;27.75;52.17;100712.69;5042334;28;20520;-73
2022/07/01 09:14:41;;;;;;;13.40;12.27;;;27.40;35.60;;;27.99;52.24;100717.84;5055063;28;20473;-72
2022/07/01 09:17:20;;;;;;;15.33;12.70;;;27.60;37.20;;;27.90;52.28;100720.59;5057295;28;20413;-72
2022/07/01 09:19:51;;;;;;;13.73;12.37;;;27.50;35.50;;;27.89;51.90;100718.13;5042084;28;20508;-73
2022/07/01 09:22:20;;;;;;;12.83;11.50;;;27.40;33.90;;;28.05;51.50;100717.38;5049078;28;20537;-74
2022/07/01 09:24:49;;;;;;;11.97;10.80;;;27.50;33.50;;;28.08;51.23;100727.84;5038754;28;20447;-73
2022/07/01 09:27:18;;;;;;;13.43;12.03;;;27.50;33.50;;;27.55;52.25;100735.47;5060841;28;20448;-73
2022/07/01 09:29:51;;;;;;;6.53;5.50;;;27.40;32.20;;;26.26;55.48;100765.75;5058169;28;20533;-72
2022/07/01 09:32:23;;;;;;;6.20;4.80;;;26.50;38.70;;;25.43;57.91;100758.47;5048839;28;20509;-72
2022/07/01 09:34:55;;;;;;;5.30;4.80;;;25.60;54.50;;;24.72;59.85;100780.91;5044222;28;20991;-74
2022/07/01 09:37:27;;;;;;;5.10;4.60;;;24.80;80.10;;;24.37;61.13;100786.91;5044587;28;20435;-72
2022/07/01 09:39:58;;;;;;;6.67;4.00;;;24.40;92.50;;;24.05;61.60;100801.41;5044145;28;20435;-72
2022/07/01 09:42:28;;;;;;;6.07;3.50;;;24.00;95.20;;;23.33;63.76;100808.72;5054099;28;20457;-73
2022/07/01 09:45:00;;;;;;;4.70;4.30;;;23.40;99.90;;;23.34;63.67;100810.34;5059415;28;20479;-73
2022/07/01 09:47:34;;;;;;;3.07;2.77;;;23.20;99.90;;;22.83;64.80;100821.75;5042900;28;20509;-72
2022/07/01 09:50:06;;;;;;;2.73;2.20;;;22.80;99.90;;;22.83;64.73;100821.75;5055115;28;20533;-73
2022/07/01 09:52:35;;;;;;;3.13;1.90;;;22.60;99.90;;;22.57;65.32;100833.16;5058151;28;20544;-72
2022/07/01 09:55:07;;;;;;;2.63;2.43;;;22.40;99.90;;;22.47;65.72;100845.91;5045097;28;20468;-74
2022/07/01 09:57:36;;;;;;;3.30;2.40;;;22.30;99.90;;;22.08;66.62;100854.00;5043706;28;20438;-73
2022/07/01 10:00:07;;;;;;;5.13;2.43;;;22.00;99.90;;;21.74;67.02;100874.16;5049843;28;20540;-73
2022/07/01 10:02:37;;;;;;;4.50;2.10;;;21.70;99.90;;;21.32;68.34;100874.44;5052355;28;20508;-73
2022/07/01 10:05:15;;;;;;;2.00;1.53;;;21.20;99.90;;;21.12;69.18;100889.78;5054763;28;20948;-72
2022/07/01 10:07:59;;;;;;;4.73;1.90;;;21.00;99.90;;;21.00;69.86;100886.47;5031048;28;20470;-73
2022/07/01 10:10:45;;;;;;;4.17;2.57;;;20.80;99.90;;;21.05;69.47;100878.22;5061564;28;20482;-72
2022/07/01 10:13:17;;;;;;;4.43;3.47;;;20.80;99.90;;;20.83;70.63;100885.84;5050244;28;20502;-72
2022/07/01 10:15:49;;;;;;;3.60;2.50;;;20.60;99.90;;;21.19;69.57;100878.53;5051635;28;20452;-72
2022/07/01 10:18:23;;;;;;;4.50;3.30;;;20.80;99.90;;;21.44;68.12;100873.06;5056550;28;20491;-73
2022/07/01 10:20:56;;;;;;;2.57;2.37;;;21.00;99.90;;;21.46;67.81;100879.13;5052553;28;20940;-73
2022/07/01 10:23:39;;;;;;;5.53;2.40;;;21.10;99.90;;;21.16;68.78;100873.56;5061202;28;20491;-73